| time (UTC) | temp F | wind direction | speed MPH | gust MPH | rain 1hr in | rain 24hr in | rain mn in | humidity % | barometer mb |
| 20260507083603 | 52 | 248 | 3.0 | 7.0 | 0.00 | 0.00 | 0.00 | 79 | 1013.1 |
| 20260507082703 | 51 | 238 | 2.0 | 7.0 | 0.00 | 0.00 | 0.00 | 79 | 1013.1 |
| 20260507081803 | 51 | 207 | 2.0 | 6.0 | 0.00 | 0.00 | 0.00 | 80 | 1013.2 |
| 20260507080903 | 50 | 221 | 2.0 | 5.0 | 0.00 | 0.00 | 0.00 | 81 | 1013.1 |
| 20260507080003 | 49 | 207 | 1.0 | 3.0 | 0.00 | 0.00 | 0.00 | 82 | 1013.1 |
| 20260507075403 | 49 | 215 | 1.0 | 4.0 | 0.00 | 0.00 | 0.00 | 82 | 1013.1 |
| 20260507074503 | 48 | 224 | 2.0 | 4.0 | 0.00 | 0.00 | 0.00 | 83 | 1013.1 |
| 20260507073603 | 48 | 238 | 1.0 | 5.0 | 0.00 | 0.00 | 0.00 | 83 | 1013.0 |
| 20260507072703 | 47 | 228 | 1.0 | 5.0 | 0.00 | 0.00 | 0.00 | 83 | 1012.9 |
| 20260507071803 | 47 | 240 | 2.0 | 5.0 | 0.00 | 0.00 | 0.00 | 84 | 1012.9 |
| 20260507070903 | 47 | 242 | 2.0 | 6.0 | 0.00 | 0.00 | 0.00 | 84 | 1012.9 |
| 20260507070004 | 46 | 245 | 2.0 | 6.0 | 0.00 | 0.00 | 0.00 | 85 | 1012.8 |
| 20260507065403 | 46 | 249 | 2.0 | 6.0 | 0.00 | 0.00 | 0.00 | 85 | 1012.8 |
| 20260507064503 | 46 | 249 | 1.0 | 5.0 | 0.00 | 0.00 | 0.00 | 86 | 1012.8 |
| 20260507063603 | 45 | 252 | 2.0 | 4.0 | 0.00 | 0.00 | 0.00 | 85 | 1012.9 |
| 20260507062703 | 45 | 255 | 3.0 | 5.0 | 0.00 | 0.00 | 0.00 | 86 | 1012.9 |
| 20260507061803 | 45 | 252 | 3.0 | 6.0 | 0.00 | 0.00 | 0.00 | 86 | 1012.9 |
| 20260507060903 | 45 | 249 | 3.0 | 6.0 | 0.00 | 0.00 | 0.00 | 86 | 1012.9 |
| 20260507060003 | 45 | 243 | 3.0 | 7.0 | 0.00 | 0.00 | 0.00 | 86 | 1012.8 |
| 20260507055403 | 45 | 240 | 3.0 | 5.0 | 0.00 | 0.00 | 0.00 | 86 | 1012.7 |
| 20260507054503 | 45 | 244 | 3.0 | 5.0 | 0.00 | 0.00 | 0.00 | 87 | 1012.8 |
| 20260507053603 | 45 | 250 | 3.0 | 4.0 | 0.00 | 0.00 | 0.00 | 87 | 1012.7 |
| 20260507052703 | 45 | 241 | 3.0 | 6.0 | 0.00 | 0.00 | 0.00 | 87 | 1012.8 |
| 20260507051803 | 45 | 246 | 3.0 | 6.0 | 0.00 | 0.00 | 0.00 | 87 | 1012.8 |
| 20260507050903 | 45 | 242 | 2.0 | 5.0 | 0.00 | 0.00 | 0.00 | 87 | 1012.7 |
| 20260507050003 | 45 | 242 | 3.0 | 5.0 | 0.00 | 0.00 | 0.00 | 87 | 1012.7 |
| 20260507045403 | 45 | 243 | 3.0 | 6.0 | 0.00 | 0.00 | 0.00 | 87 | 1012.6 |
| 20260507044503 | 45 | 240 | 2.0 | 5.0 | 0.00 | 0.00 | 0.00 | 87 | 1012.7 |
| 20260507043603 | 45 | 246 | 3.0 | 6.0 | 0.00 | 0.00 | 0.00 | 87 | 1012.7 |
| 20260507042703 | 45 | 233 | 2.0 | 4.0 | 0.00 | 0.00 | 0.00 | 87 | 1012.7 |
| 20260507041803 | 45 | 0 | 0.0 | 0.0 | 0.00 | 0.00 | 0.00 | 87 | 1012.7 |
| 20260507040903 | 45 | 229 | 0.0 | 2.0 | 0.00 | 0.00 | 0.00 | 87 | 1012.7 |
| 20260507040003 | 45 | 229 | 0.0 | 4.0 | 0.00 | 0.00 | 0.00 | 87 | 1012.7 |
| 20260507035403 | 46 | 229 | 0.0 | 4.0 | 0.00 | 0.00 | 0.00 | 87 | 1012.6 |
| 20260507034503 | 46 | 229 | 1.0 | 3.0 | 0.00 | 0.00 | 0.00 | 87 | 1012.6 |
| 20260507033603 | 46 | 229 | 0.0 | 1.0 | 0.00 | 0.00 | 0.00 | 86 | 1012.6 |
| 20260507032703 | 46 | 229 | 0.0 | 1.0 | 0.00 | 0.00 | 0.00 | 86 | 1012.6 |
| 20260507031803 | 46 | 229 | 0.0 | 2.0 | 0.00 | 0.00 | 0.00 | 86 | 1012.6 |
| 20260507030903 | 46 | 229 | 0.0 | 2.0 | 0.00 | 0.00 | 0.00 | 86 | 1012.7 |
| 20260507030003 | 46 | 229 | 0.0 | 2.0 | 0.00 | 0.00 | 0.00 | 86 | 1012.7 |
| 20260507025403 | 46 | 229 | 0.0 | 2.0 | 0.00 | 0.00 | 0.00 | 86 | 1012.7 |
| 20260507024503 | 47 | 229 | 0.0 | 2.0 | 0.00 | 0.00 | 0.00 | 86 | 1012.7 |
| 20260507023603 | 47 | 229 | 1.0 | 2.0 | 0.00 | 0.00 | 0.00 | 86 | 1012.7 |
| 20260507022703 | 47 | 229 | 0.0 | 3.0 | 0.00 | 0.00 | 0.00 | 86 | 1012.8 |
| 20260507021803 | 47 | 0 | 0.0 | 0.0 | 0.00 | 0.00 | 0.00 | 86 | 1012.8 |
| 20260507020903 | 48 | 0 | 0.0 | 0.0 | 0.00 | 0.00 | 0.00 | 86 | 1012.9 |
| 20260507020003 | 48 | 0 | 0.0 | 0.0 | 0.00 | 0.00 | 0.00 | 85 | 1012.9 |
| 20260507015403 | 48 | 0 | 0.0 | 0.0 | 0.00 | 0.00 | 0.00 | 85 | 1012.9 |
| 20260507014503 | 48 | 0 | 0.0 | 0.0 | 0.00 | 0.00 | 0.00 | 85 | 1013.0 |
| 20260507013603 | 48 | 0 | 0.0 | 0.0 | 0.00 | 0.00 | 0.00 | 85 | 1013.0 |
| 20260507012703 | 48 | 0 | 0.0 | 0.0 | 0.00 | 0.00 | 0.00 | 85 | 1013.0 |
| 20260507011803 | 48 | 0 | 0.0 | 0.0 | 0.00 | 0.00 | 0.00 | 85 | 1013.0 |
| 20260507010903 | 48 | 229 | 0.0 | 2.0 | 0.00 | 0.00 | 0.00 | 85 | 1013.0 |
| 20260507010003 | 48 | 229 | 1.0 | 3.0 | 0.00 | 0.00 | 0.00 | 84 | 1013.1 |
| 20260507005403 | 48 | 229 | 1.0 | 3.0 | 0.00 | 0.00 | 0.00 | 84 | 1013.1 |
| 20260507004503 | 48 | 229 | 1.0 | 3.0 | 0.00 | 0.00 | 0.00 | 83 | 1013.3 |
| 20260507003603 | 48 | 229 | 2.0 | 3.0 | 0.00 | 0.00 | 0.00 | 83 | 1013.3 |
| 20260507002703 | 49 | 229 | 1.0 | 5.0 | 0.00 | 0.00 | 0.00 | 82 | 1013.3 |
| 20260507001803 | 49 | 229 | 2.0 | 5.0 | 0.00 | 0.00 | 0.00 | 82 | 1013.4 |
| 20260507000903 | 50 | 229 | 2.0 | 4.0 | 0.00 | 0.00 | 0.00 | 82 | 1013.5 |
| 20260507000003 | 50 | 235 | 2.0 | 4.0 | 0.00 | 0.00 | 0.00 | 82 | 1013.5 |
| 20260506235403 | 50 | 240 | 2.0 | 4.0 | 0.00 | 0.00 | 0.00 | 81 | 1013.5 |
| 20260506234503 | 50 | 234 | 2.0 | 4.0 | 0.00 | 0.00 | 0.00 | 81 | 1013.6 |
| 20260506233603 | 50 | 223 | 1.0 | 4.0 | 0.00 | 0.00 | 0.00 | 81 | 1013.6 |
| 20260506232703 | 51 | 191 | 3.0 | 5.0 | 0.00 | 0.00 | 0.00 | 81 | 1013.5 |
| 20260506231803 | 51 | 175 | 5.0 | 7.0 | 0.00 | 0.00 | 0.00 | 81 | 1013.5 |
| 20260506230903 | 51 | 174 | 5.0 | 8.0 | 0.00 | 0.00 | 0.00 | 81 | 1013.6 |
| 20260506230003 | 51 | 173 | 4.0 | 7.0 | 0.00 | 0.00 | 0.00 | 80 | 1013.6 |
| 20260506225403 | 51 | 177 | 5.0 | 8.0 | 0.00 | 0.00 | 0.00 | 80 | 1013.7 |
| 20260506224503 | 51 | 173 | 5.0 | 8.0 | 0.00 | 0.00 | 0.00 | 80 | 1013.7 |
| 20260506223603 | 51 | 175 | 6.0 | 9.0 | 0.00 | 0.00 | 0.00 | 80 | 1013.7 |
| 20260506222703 | 51 | 176 | 5.0 | 9.0 | 0.00 | 0.00 | 0.00 | 81 | 1013.7 |
| 20260506221803 | 51 | 176 | 5.0 | 9.0 | 0.00 | 0.00 | 0.00 | 80 | 1013.8 |
| 20260506220903 | 51 | 173 | 5.0 | 9.0 | 0.00 | 0.00 | 0.00 | 80 | 1013.7 |
| 20260506220003 | 51 | 172 | 5.0 | 7.0 | 0.00 | 0.00 | 0.00 | 80 | 1013.7 |
| 20260506215403 | 51 | 171 | 5.0 | 9.0 | 0.00 | 0.00 | 0.00 | 79 | 1013.7 |
| 20260506214503 | 51 | 175 | 5.0 | 9.0 | 0.00 | 0.00 | 0.00 | 79 | 1013.8 |
| 20260506213603 | 51 | 176 | 5.0 | 8.0 | 0.00 | 0.00 | 0.00 | 78 | 1013.9 |
| 20260506212703 | 51 | 168 | 5.0 | 9.0 | 0.00 | 0.00 | 0.00 | 78 | 1013.9 |
| 20260506211803 | 51 | 167 | 5.0 | 9.0 | 0.00 | 0.00 | 0.00 | 78 | 1013.9 |
| 20260506210903 | 51 | 164 | 7.0 | 11.0 | 0.00 | 0.00 | 0.00 | 77 | 1013.9 |
| 20260506210003 | 51 | 162 | 7.0 | 11.0 | 0.00 | 0.00 | 0.00 | 77 | 1014.0 |
| 20260506205403 | 51 | 165 | 6.0 | 11.0 | 0.00 | 0.00 | 0.00 | 78 | 1013.9 |
| 20260506204503 | 51 | 174 | 6.0 | 10.0 | 0.00 | 0.00 | 0.00 | 78 | 1013.9 |
| 20260506203603 | 52 | 178 | 5.0 | 10.0 | 0.00 | 0.00 | 0.00 | 79 | 1013.9 |
| 20260506202703 | 52 | 174 | 6.0 | 10.0 | 0.00 | 0.00 | 0.00 | 79 | 1013.9 |
| 20260506201803 | 52 | 165 | 6.0 | 12.0 | 0.00 | 0.00 | 0.00 | 78 | 1013.8 |
| 20260506200903 | 52 | 169 | 6.0 | 10.0 | 0.00 | 0.00 | 0.00 | 79 | 1013.8 |
| 20260506200003 | 52 | 163 | 6.0 | 10.0 | 0.00 | 0.00 | 0.00 | 78 | 1013.8 |
| 20260506195403 | 52 | 160 | 6.0 | 10.0 | 0.00 | 0.00 | 0.00 | 78 | 1013.7 |
| 20260506194503 | 52 | 166 | 7.0 | 11.0 | 0.00 | 0.00 | 0.00 | 78 | 1013.7 |
| 20260506193603 | 52 | 168 | 7.0 | 11.0 | 0.00 | 0.00 | 0.00 | 77 | 1013.8 |
| 20260506192703 | 52 | 161 | 7.0 | 11.0 | 0.00 | 0.00 | 0.00 | 77 | 1013.8 |
| 20260506191803 | 52 | 165 | 6.0 | 10.0 | 0.00 | 0.00 | 0.00 | 77 | 1013.7 |
| 20260506190903 | 52 | 166 | 6.0 | 11.0 | 0.00 | 0.00 | 0.00 | 77 | 1013.8 |
| 20260506190003 | 52 | 166 | 7.0 | 11.0 | 0.00 | 0.00 | 0.00 | 77 | 1013.8 |
| 20260506185403 | 52 | 163 | 7.0 | 11.0 | 0.00 | 0.00 | 0.00 | 76 | 1013.7 |
| 20260506184503 | 52 | 164 | 6.0 | 11.0 | 0.00 | 0.00 | 0.00 | 76 | 1013.8 |
| 20260506183603 | 52 | 167 | 7.0 | 11.0 | 0.00 | 0.00 | 0.00 | 76 | 1013.8 |
| 20260506182703 | 52 | 167 | 6.0 | 12.0 | 0.00 | 0.00 | 0.00 | 76 | 1013.7 |
| 20260506181803 | 52 | 168 | 7.0 | 11.0 | 0.00 | 0.00 | 0.00 | 75 | 1013.7 |
| 20260506180903 | 52 | 165 | 6.0 | 11.0 | 0.00 | 0.00 | 0.00 | 75 | 1013.7 |
| 20260506180004 | 52 | 165 | 6.0 | 10.0 | 0.00 | 0.00 | 0.00 | 75 | 1013.8 |
| 20260506175403 | 52 | 161 | 7.0 | 10.0 | 0.00 | 0.00 | 0.00 | 74 | 1013.8 |
| 20260506174503 | 52 | 164 | 7.0 | 10.0 | 0.00 | 0.00 | 0.00 | 74 | 1013.8 |
| 20260506173603 | 53 | 173 | 6.0 | 11.0 | 0.00 | 0.00 | 0.00 | 74 | 1013.8 |
| 20260506172703 | 53 | 170 | 7.0 | 11.0 | 0.00 | 0.00 | 0.00 | 73 | 1013.8 |
| 20260506171803 | 53 | 169 | 6.0 | 11.0 | 0.00 | 0.00 | 0.00 | 72 | 1013.8 |
| 20260506170903 | 53 | 165 | 7.0 | 12.0 | 0.00 | 0.00 | 0.00 | 72 | 1013.8 |
| 20260506170003 | 53 | 170 | 7.0 | 11.0 | 0.00 | 0.00 | 0.00 | 71 | 1013.7 |
| 20260506165403 | 53 | 169 | 7.0 | 11.0 | 0.00 | 0.00 | 0.00 | 71 | 1013.7 |
| 20260506164503 | 53 | 166 | 7.0 | 12.0 | 0.00 | 0.00 | 0.00 | 70 | 1013.8 |
| 20260506163603 | 53 | 166 | 7.0 | 12.0 | 0.00 | 0.00 | 0.00 | 70 | 1013.9 |
| 20260506162703 | 53 | 163 | 7.0 | 15.0 | 0.00 | 0.00 | 0.00 | 71 | 1014.0 |
| 20260506161803 | 53 | 166 | 8.0 | 12.0 | 0.00 | 0.00 | 0.00 | 71 | 1014.0 |
| 20260506160903 | 53 | 162 | 8.0 | 13.0 | 0.00 | 0.00 | 0.00 | 70 | 1014.2 |
| 20260506160003 | 53 | 170 | 8.0 | 13.0 | 0.00 | 0.00 | 0.00 | 71 | 1014.2 |
| 20260506155403 | 53 | 166 | 8.0 | 13.0 | 0.00 | 0.00 | 0.00 | 70 | 1014.3 |
| 20260506154503 | 53 | 164 | 8.0 | 15.0 | 0.00 | 0.00 | 0.00 | 71 | 1014.2 |
| 20260506153603 | 53 | 160 | 8.0 | 14.0 | 0.00 | 0.00 | 0.00 | 71 | 1014.4 |
| 20260506152703 | 53 | 159 | 9.0 | 16.0 | 0.00 | 0.00 | 0.00 | 71 | 1014.4 |
| 20260506151803 | 53 | 159 | 9.0 | 13.0 | 0.00 | 0.00 | 0.00 | 71 | 1014.4 |
| 20260506150903 | 53 | 160 | 8.0 | 12.0 | 0.00 | 0.00 | 0.00 | 72 | 1014.4 |
| 20260506150003 | 53 | 157 | 9.0 | 14.0 | 0.00 | 0.00 | 0.00 | 73 | 1014.5 |
| 20260506145403 | 52 | 156 | 9.0 | 14.0 | 0.00 | 0.00 | 0.00 | 73 | 1014.5 |
| 20260506144503 | 52 | 158 | 9.0 | 13.0 | 0.00 | 0.00 | 0.00 | 74 | 1014.5 |
| 20260506143603 | 52 | 154 | 9.0 | 13.0 | 0.00 | 0.00 | 0.00 | 74 | 1014.5 |
| 20260506142703 | 53 | 155 | 8.0 | 12.0 | 0.00 | 0.00 | 0.00 | 73 | 1014.5 |
| 20260506141803 | 53 | 158 | 8.0 | 14.0 | 0.00 | 0.00 | 0.00 | 73 | 1014.6 |
| 20260506140903 | 53 | 155 | 8.0 | 13.0 | 0.00 | 0.00 | 0.00 | 73 | 1014.6 |
| 20260506140003 | 53 | 161 | 5.0 | 10.0 | 0.00 | 0.00 | 0.00 | 73 | 1014.6 |
| 20260506135403 | 53 | 152 | 6.0 | 11.0 | 0.00 | 0.00 | 0.00 | 72 | 1014.6 |
| 20260506134503 | 54 | 105 | 1.0 | 9.0 | 0.00 | 0.00 | 0.00 | 73 | 1014.7 |
| 20260506133603 | 54 | 339 | 1.0 | 3.0 | 0.00 | 0.00 | 0.00 | 75 | 1014.7 |
| 20260506132703 | 54 | 340 | 2.0 | 5.0 | 0.00 | 0.00 | 0.00 | 75 | 1014.6 |
| 20260506131803 | 53 | 336 | 2.0 | 5.0 | 0.00 | 0.00 | 0.00 | 76 | 1014.7 |
| 20260506130903 | 53 | 314 | 2.0 | 5.0 | 0.00 | 0.00 | 0.00 | 76 | 1014.8 |
| 20260506130003 | 54 | 294 | 1.0 | 5.0 | 0.00 | 0.00 | 0.00 | 75 | 1014.8 |
| 20260506125403 | 54 | 205 | 2.0 | 5.0 | 0.00 | 0.00 | 0.00 | 73 | 1014.8 |
| 20260506124503 | 54 | 171 | 2.0 | 6.0 | 0.00 | 0.00 | 0.00 | 72 | 1014.8 |
| 20260506123603 | 54 | 190 | 3.0 | 9.0 | 0.00 | 0.00 | 0.00 | 71 | 1014.8 |
| 20260506122703 | 54 | 179 | 6.0 | 10.0 | 0.00 | 0.00 | 0.00 | 71 | 1014.9 |
| 20260506121803 | 53 | 157 | 7.0 | 11.0 | 0.00 | 0.00 | 0.00 | 71 | 1014.8 |
| 20260506120903 | 53 | 162 | 7.0 | 13.0 | 0.00 | 0.00 | 0.00 | 71 | 1014.8 |
| 20260506120003 | 53 | 158 | 9.0 | 13.0 | 0.00 | 0.00 | 0.00 | 70 | 1014.8 |
| 20260506115403 | 53 | 159 | 9.0 | 14.0 | 0.00 | 0.00 | 0.00 | 71 | 1014.8 |
| 20260506114503 | 53 | 156 | 7.0 | 11.0 | 0.00 | 0.00 | 0.00 | 72 | 1014.9 |
| 20260506113603 | 53 | 156 | 7.0 | 11.0 | 0.00 | 0.00 | 0.00 | 74 | 1014.9 |
| 20260506112703 | 53 | 155 | 7.0 | 11.0 | 0.00 | 0.00 | 0.00 | 74 | 1015.0 |
| 20260506111803 | 53 | 158 | 7.0 | 11.0 | 0.00 | 0.00 | 0.00 | 73 | 1015.0 |
| 20260506110903 | 53 | 155 | 7.0 | 10.0 | 0.00 | 0.00 | 0.00 | 75 | 1015.0 |
| 20260506110003 | 53 | 163 | 7.0 | 10.0 | 0.00 | 0.00 | 0.00 | 73 | 1015.0 |
| 20260506105403 | 53 | 166 | 6.0 | 10.0 | 0.00 | 0.00 | 0.00 | 74 | 1015.0 |
| 20260506104503 | 53 | 155 | 6.0 | 9.0 | 0.00 | 0.00 | 0.00 | 75 | 1015.0 |
| 20260506103603 | 53 | 147 | 4.0 | 6.0 | 0.00 | 0.00 | 0.00 | 76 | 1015.0 |
| 20260506102703 | 53 | 141 | 4.0 | 5.0 | 0.00 | 0.00 | 0.00 | 77 | 1015.0 |
| 20260506101803 | 53 | 142 | 3.0 | 5.0 | 0.00 | 0.00 | 0.00 | 76 | 1015.0 |
| 20260506100903 | 53 | 146 | 4.0 | 7.0 | 0.00 | 0.00 | 0.00 | 76 | 1015.0 |
| 20260506100003 | 53 | 147 | 4.0 | 7.0 | 0.00 | 0.00 | 0.00 | 75 | 1015.1 |
| 20260506095403 | 53 | 157 | 3.0 | 6.0 | 0.00 | 0.00 | 0.00 | 75 | 1015.1 |
| 20260506094503 | 53 | 144 | 2.0 | 5.0 | 0.00 | 0.00 | 0.00 | 75 | 1015.2 |
| 20260506093603 | 53 | 142 | 2.0 | 4.0 | 0.00 | 0.00 | 0.00 | 75 | 1015.2 |
| 20260506092703 | 54 | 145 | 2.0 | 4.0 | 0.00 | 0.00 | 0.00 | 76 | 1015.1 |
| 20260506091803 | 54 | 151 | 3.0 | 5.0 | 0.00 | 0.00 | 0.00 | 76 | 1015.1 |
| 20260506090903 | 54 | 146 | 3.0 | 5.0 | 0.00 | 0.00 | 0.00 | 77 | 1015.2 |
| 20260506090003 | 53 | 136 | 3.0 | 5.0 | 0.00 | 0.00 | 0.00 | 78 | 1015.2 |
| 20260506085403 | 53 | 141 | 3.0 | 5.0 | 0.00 | 0.00 | 0.00 | 79 | 1015.2 |
| 20260506084503 | 53 | 78 | 1.0 | 4.0 | 0.00 | 0.00 | 0.00 | 79 | 1015.3 |